• Join FlightAware (Why Join?)
  • Login
  • US Flag 
02:45PM EDT


 

Airport Tracker/Info


-or-


 

Live Flight TrackerFlight Track Log ✈ LXJ342 ✈ 14-May-2013 ✈ KLAS - KVNY

Flight Track Log - Related Links

Times and Time Zones

All times are in EDT time to prevent confusion due to time zone crossing. See the LXJ342 flight status page for this flight to view local times or setup timezone preferences in your user account.

Time Position Orientation Groundspeed Altitude Reporting Facility
EDT Latitude Longitude Course Direction KTS MPH feet Rate Location/Type
01:30PM 36.0650 -115.1772 208° Southwest 187 215 3,100  Level Los Angeles Center
01:32PM 35.9933 -115.2247 208° Southwest 231 266 6,900 2,820 Climbing Los Angeles Center
01:33PM 35.9303 -115.2428 193° South 262 302 9,500 2,640 Climbing Los Angeles Center
01:34PM 35.8475 -115.2578 188° South 268 308 12,500 2,700 Climbing Los Angeles Center
01:35PM 35.7586 -115.2767 190° South 306 352 15,500 2,820 Climbing Los Angeles Center
01:36PM 35.6681 -115.3089 196° South 332 382 18,400 2,160 Climbing Los Angeles Center
01:37PM 35.5806 -115.4253 227° Southwest 378 435 20,000 720 Climbing Los Angeles Center
01:38PM 35.5192 -115.5069 227° Southwest 395 455 20,000  Level Los Angeles Center
01:39PM 35.4253 -115.6342 228° Southwest 405 466 20,000  Level Los Angeles Center
01:40PM 35.3492 -115.7333 227° Southwest 401 461 20,000  Level Los Angeles Center
01:41PM 35.2742 -115.8342 228° Southwest 401 461 20,000  Level Los Angeles Center
01:42PM 35.1992 -115.9333 227° Southwest 397 457 20,000  Level Los Angeles Center
01:43PM 35.1133 -116.0472 227° Southwest 390 449 20,000  Level Los Angeles Center
01:44PM 35.0522 -116.1253 226° Southwest 388 447 20,000  Level Los Angeles Center
01:45PM 34.9644 -116.2417 227° Southwest 388 447 20,000  Level Los Angeles Center
01:46PM 34.8917 -116.3375 227° Southwest 387 445 20,000  Level Los Angeles Center
01:47PM 34.8372 -116.4492 239° Southwest 402 463 20,000  Level Los Angeles Center
01:48PM 34.8231 -116.5781 262° West 390 449 20,000  Level Los Angeles Center
01:49PM 34.8053 -116.7072 261° West 388 447 20,000  Level Los Angeles Center
01:51PM 34.7897 -116.8358 262° West 386 444 20,000  Level Los Angeles Center
01:52PM 34.7653 -117.0167 261° West 386 444 20,000  Level Los Angeles Center
01:53PM 34.7481 -117.1425 261° West 383 441 20,000  Level Los Angeles Center
01:54PM 34.7317 -117.2708 261° West 381 438 20,000  Level Los Angeles Center
01:55PM 34.7144 -117.4006 261° West 385 443 20,000 -300 Level Los Angeles Center
01:56PM 34.6989 -117.5242 261° West 370 426 19,400 -1,320 Descending Los Angeles Center
01:57PM 34.6819 -117.6481 261° West 370 426 17,300 -2,100 Descending Los Angeles Center
01:58PM 34.6658 -117.7658 261° West 356 410 15,100 -1,860 Descending Los Angeles Center
01:59PM 34.6481 -117.9078 261° West 357 411 13,200 -1,380 Descending Los Angeles Center
02:00PM 34.6336 -118.0475 263° West 349 402 11,800 -1,260 Descending Los Angeles Center
02:01PM 34.6117 -118.1556 256° West 289 333 10,400 -1,260 Descending Los Angeles Center
02:02PM 34.5922 -118.2436 255° West 273 314 9,300 -1,080 Descending Los Angeles Center
02:03PM 34.5686 -118.3431 254° West 259 298 8,200 -660 Descending Los Angeles Center
02:04PM 34.5503 -118.4264 255° West 259 298 8,000 -120 Descending Los Angeles Center
02:06PM 34.5292 -118.5075 252° West 254 292 8,000 -600 Level Los Angeles Center
02:07PM 34.4644 -118.5211 190° South 249 287 6,800 -1,020 Descending Los Angeles Center
02:08PM 34.3872 -118.5094 173° South 230 265 5,900 -900 Descending Los Angeles Center
02:08PM 34.3667 -118.5000 159° South 224 258 5,600 -1,260 Descending Southern California TRACON
02:09PM 34.3167 -118.5000 180° South 169 194 4,200 -1,440 Descending Southern California TRACON
02:10PM 34.2833 -118.5000 180° South 135 155 2,800 -1,500 Descending Southern California TRACON
02:11PM 34.2333 -118.5000 180° South 129 148 1,400 -1,440 Descending Southern California TRACON
02:14PM 34.2098 -118.4900 180° South  Level Estimated
02:21PM 34.2098 -118.4900 180° South  Level Estimated